Hauptseite
METAR-TAF:

METAR-TAF

Flughäfen :

Flughafen Toulon-Hyères

Toulon, Frankreich

Breite: 43-06N, Länge: 006-09E, Höhe: 3 m

Beobachtung

Neuester Wetterbericht von vor 40 Minuten, um 09:30 UTC
Wind 3 kt aus Nord
Temperatur 7°C
Luftfeuchtigkeit 70%
Luftdruck 1014 hPa
Sichtweite 10 km oder mehr
keine Wolken unter 1500 m und keine Kumulonimbus oder Gewitterwolken

METAR: LFTH 190930Z AUTO 36003KT CAVOK 07/02 Q1014 TEMPO SHRA BECMG 08010KT

Zeit: 11:10 (10:10 UTC)

Prognose

Neuester Wetterbericht von vor 2 Stunden und 10 Minuten, um 08:00 UTC
Gültige Prognose vom 19 um 09 UTC bis 20 um 09 UTC
Wind 10 kt aus Ost
Sichtweite 10 km oder mehr
Durchbrochene Bewölkung in der Höhe von 3000 ft
Zeitweise
vom 19 um 11 UTC bis 20 um 09 UTC
Regenschauer

TAF: LFTH 190800Z 1909/2009 08010KT 9999 BKN030 TEMPO 1911/2009 SHRA

Wetterbeobachtungen und Prognosen von mehr als 4000 Flughäfen (METAR und TAF Bericht).

Die verfügbaren Stationen werden durch gelbe und rote Markierungen auf der Karte dargestellt.

Führen Sie die Maus auf sie, um den Namen der Station zu sehen.

Darauf klicken, um die Beobachtung von Wetterbeobachtungen und Prognosen zu sehen.

Um die Karte zu ändern : klicken Sie auf den grünen Tasten mit einem schwarzen Kreuz Zum Vergrößern, auf den grünen Button mit einem Gedankenstrich zu verkleinern, oder auf die grünen Pfeile für benachbarte Karten.


METAR-TAF: